Time;durP1;ratioP1;P1;durP2;ratioP2;P2;SDS_P1;SDS_P2;PMS_P1;PMS_P2;Temp;Humidity;BMP_temperature;BMP_pressure;BME280_temperature;BME280_humidity;BME280_pressure;Samples;Min_cycle;Max_cycle;Signal;HPM_P1;HPM_P2
2022/11/22 00:00:03;;;;;;;2.78;2.30;;;;;;;8.95;64.08;99057.56;5031279;28;20033;-36
2022/11/22 00:02:29;;;;;;;2.83;2.40;;;;;;;8.99;63.70;99056.13;5030468;28;20413;-35
2022/11/22 00:04:54;;;;;;;3.13;2.53;;;;;;;8.90;63.99;99061.88;5030574;28;20034;-35
2022/11/22 00:07:20;;;;;;;2.80;2.42;;;;;;;9.02;63.41;99060.19;5030679;28;20531;-35
2022/11/22 00:09:45;;;;;;;3.08;2.53;;;;;;;8.79;63.89;99055.38;5030760;28;20441;-36
2022/11/22 00:12:10;;;;;;;2.78;2.40;;;;;;;8.92;63.49;99057.97;5030339;28;20092;-36
2022/11/22 00:14:36;;;;;;;2.70;2.42;;;;;;;8.97;63.32;99052.88;5030588;28;20040;-36
2022/11/22 00:17:01;;;;;;;4.10;2.70;;;;;;;8.90;63.85;99052.06;5030574;28;20021;-37
2022/11/22 00:19:26;;;;;;;3.20;2.55;;;;;;;8.61;64.37;99064.00;5030620;28;20032;-36
2022/11/22 00:21:52;;;;;;;3.47;2.75;;;;;;;8.75;63.87;99068.22;5030562;28;20083;-37
2022/11/22 00:24:17;;;;;;;3.13;2.50;;;;;;;8.77;63.75;99071.50;5029366;28;20053;-37
2022/11/22 00:26:43;;;;;;;3.08;2.53;;;;;;;8.83;63.63;99056.59;5030750;28;20036;-37
2022/11/22 00:29:08;;;;;;;3.30;2.63;;;;;;;8.82;63.21;99057.63;5030773;28;20032;-37
2022/11/22 00:31:33;;;;;;;3.90;2.60;;;;;;;8.48;64.94;99056.88;5030691;28;20095;-37
2022/11/22 00:33:59;;;;;;;3.38;2.78;;;;;;;8.43;65.12;99061.97;5030688;28;20021;-37
2022/11/22 00:36:24;;;;;;;2.90;2.60;;;;;;;8.27;65.30;99068.47;5030524;28;20040;-37
2022/11/22 00:38:50;;;;;;;3.13;2.50;;;;;;;8.02;66.26;99065.63;5030532;28;20075;-37
2022/11/22 00:41:15;;;;;;;3.50;2.70;;;;;;;8.40;65.16;99070.31;5030537;28;20476;-37
2022/11/22 00:43:41;;;;;;;3.42;2.67;;;;;;;8.37;64.81;99074.19;5030365;28;20032;-37
2022/11/22 00:46:06;;;;;;;2.80;2.47;;;;;;;8.08;65.33;99072.75;5030325;28;20029;-37
2022/11/22 00:48:32;;;;;;;3.03;2.58;;;;;;;8.05;65.86;99081.13;5030397;28;20025;-37
2022/11/22 00:50:57;;;;;;;3.33;2.70;;;;;;;7.92;65.98;99086.41;5030300;28;20060;-36
2022/11/22 00:53:23;;;;;;;2.90;2.47;;;;;;;7.96;65.76;99074.41;5030001;28;20100;-37
2022/11/22 00:55:49;;;;;;;4.00;2.80;;;;;;;8.06;65.16;99092.56;5030162;28;20088;-37
2022/11/22 00:58:14;;;;;;;3.67;2.70;;;;;;;7.95;65.95;99088.66;5030243;28;20027;-36
2022/11/22 01:00:40;;;;;;;3.65;2.90;;;;;;;7.78;65.63;99090.88;5030147;28;20030;-37
2022/11/22 01:03:05;;;;;;;3.17;2.67;;;;;;;7.79;65.49;99092.53;5030396;28;20167;-37
2022/11/22 01:05:31;;;;;;;3.35;2.88;;;;;;;7.66;65.73;99088.00;5029467;28;20022;-37
2022/11/22 01:07:56;;;;;;;3.42;2.50;;;;;;;7.58;66.15;99082.91;5028931;28;20037;-36
2022/11/22 01:10:22;;;;;;;5.57;2.70;;;;;;;7.68;65.59;99080.66;5030672;28;20022;-37
2022/11/22 01:12:48;;;;;;;3.28;2.72;;;;;;;7.51;65.27;99088.16;5030865;28;20517;-37
2022/11/22 01:15:13;;;;;;;3.97;2.90;;;;;;;7.60;65.80;99096.75;5035106;28;20385;-36
2022/11/22 01:17:39;;;;;;;3.63;2.85;;;;;;;7.70;66.13;99091.88;5034656;28;20033;-37
2022/11/22 01:20:05;;;;;;;3.50;2.92;;;;;;;7.68;65.98;99099.22;5034823;28;20029;-37
2022/11/22 01:22:30;;;;;;;3.30;2.80;;;;;;;7.74;65.48;99100.25;5034782;28;20029;-37
2022/11/22 01:24:56;;;;;;;4.03;3.00;;;;;;;7.88;64.89;99104.56;5034888;28;20377;-36
2022/11/22 01:27:21;;;;;;;4.00;2.90;;;;;;;8.11;65.00;99111.28;5034700;28;20075;-43
2022/11/22 01:29:47;;;;;;;4.18;3.17;;;;;;;7.81;65.67;99109.84;5034797;28;20033;-43
2022/11/22 01:32:12;;;;;;;4.95;2.97;;;;;;;7.54;66.55;99108.13;5034845;28;20117;-43
2022/11/22 01:34:37;;;;;;;3.83;2.95;;;;;;;7.73;65.46;99107.38;5034565;28;20083;-43
2022/11/22 01:37:03;;;;;;;3.80;2.95;;;;;;;7.50;66.45;99093.66;5034543;28;20446;-43
2022/11/22 01:39:29;;;;;;;4.38;3.17;;;;;;;7.69;66.23;99098.22;5034984;28;20018;-43
2022/11/22 01:41:54;;;;;;;4.63;3.42;;;;;;;7.86;66.09;99100.47;5034204;28;20020;-43
2022/11/22 01:44:29;;;;;;;5.43;3.20;;;;;;;7.83;65.62;99094.56;5034160;28;20473;-44
2022/11/22 01:47:06;;;;;;;3.83;2.85;;;;;;;7.75;66.12;99096.56;5034492;28;20035;-44
2022/11/22 01:49:57;;;;;;;3.72;3.00;;;;;;;7.56;66.44;99098.97;5034675;28;20033;-44
2022/11/22 01:52:27;;;;;;;;;;;;;;;7.53;66.42;99094.06;5034326;28;20044;-43
2022/11/22 01:55:03;;;;;;;4.18;3.35;;;;;;;7.52;67.30;99091.63;5034270;28;20365;-43
2022/11/22 01:57:31;;;;;;;4.07;3.00;;;;;;;7.43;66.70;99104.22;5034279;28;20104;-43
2022/11/22 02:00:02;;;;;;;4.65;3.15;;;;;;;7.57;66.09;99099.78;5033929;28;20022;-43
2022/11/22 02:02:28;;;;;;;5.28;3.00;;;;;;;7.49;66.45;99102.63;5033725;28;20128;-43
2022/11/22 02:04:57;;;;;;;4.07;3.13;;;;;;;7.36;66.71;99098.91;5033980;28;20465;-43
2022/11/22 02:07:34;;;;;;;3.83;3.22;;;;;;;7.35;67.13;99086.69;5033813;28;20087;-43
2022/11/22 02:10:00;;;;;;;5.13;3.08;;;;;;;7.48;66.21;99087.75;5033866;28;20481;-43
2022/11/22 02:12:29;;;;;;;3.30;2.80;;;;;;;7.55;66.68;99096.53;5034023;28;20033;-43
2022/11/22 02:14:55;;;;;;;4.00;3.25;;;;;;;7.37;66.46;99092.59;5033788;28;20041;-43
2022/11/22 02:17:20;;;;;;;5.07;3.28;;;;;;;7.28;66.60;99096.44;5033927;28;20108;-43
2022/11/22 02:19:48;;;;;;;3.50;2.85;;;;;;;7.46;66.66;99106.47;5033553;28;20117;-43
2022/11/22 02:22:44;;;;;;;4.20;3.08;;;;;;;7.30;66.65;99099.69;5033493;28;20033;-43
2022/11/22 02:25:18;;;;;;;4.25;3.05;;;;;;;7.32;66.75;99096.84;5033383;28;20046;-43
2022/11/22 02:27:44;;;;;;;3.85;3.08;;;;;;;7.29;66.95;99108.66;5033490;28;20017;-43
2022/11/22 02:30:10;;;;;;;4.18;2.97;;;;;;;7.32;66.63;99105.59;5033736;28;20511;-43
2022/11/22 02:32:35;;;;;;;4.30;3.10;;;;;;;7.45;66.37;99118.09;5033102;28;20500;-44
2022/11/22 02:35:01;;;;;;;4.07;3.17;;;;;;;7.22;66.60;99115.75;5033477;28;20343;-43
2022/11/22 02:37:30;;;;;;;3.47;3.00;;;;;;;7.20;67.22;99121.25;5033554;28;20021;-43
2022/11/22 02:39:59;;;;;;;3.55;2.97;;;;;;;7.41;66.73;99130.09;5032909;28;20026;-43
2022/11/22 02:42:27;;;;;;;3.80;3.00;;;;;;;7.28;66.49;99119.44;5033471;28;20029;-44
2022/11/22 02:44:53;;;;;;;3.47;2.90;;;;;;;7.69;65.52;99130.00;5033397;28;20474;-44
2022/11/22 02:47:18;;;;;;;4.15;2.95;;;;;;;7.48;65.65;99119.50;5032904;28;20088;-44
2022/11/22 02:49:43;;;;;;;3.25;2.72;;;;;;;7.48;65.76;99124.81;5033154;28;20076;-42
2022/11/22 02:52:09;;;;;;;4.03;3.40;;;;;;;7.72;64.77;99132.22;5032753;28;20033;-42
2022/11/22 02:54:34;;;;;;;5.05;3.47;;;;;;;7.74;64.79;99124.88;5032797;28;20056;-43
2022/11/22 02:57:02;;;;;;;3.55;3.08;;;;;;;7.67;65.05;99125.88;5033110;28;20492;-42
2022/11/22 02:59:27;;;;;;;4.00;3.00;;;;;;;7.47;66.06;99136.44;5033136;28;20021;-42
2022/11/22 03:01:53;;;;;;;3.33;2.70;;;;;;;7.51;65.77;99133.16;5032983;28;20046;-42
2022/11/22 03:04:24;;;;;;;3.97;3.30;;;;;;;7.85;65.57;99138.59;5032796;28;20029;-43
2022/11/22 03:06:51;;;;;;;3.88;3.05;;;;;;;7.70;65.04;99138.75;5032947;28;20068;-44
2022/11/22 03:09:17;;;;;;;4.30;3.38;;;;;;;7.65;65.96;99141.97;5032345;28;20025;-43
2022/11/22 03:11:42;;;;;;;3.53;3.10;;;;;;;7.63;66.09;99139.53;5032758;28;20021;-43
2022/11/22 03:14:08;;;;;;;5.03;3.17;;;;;;;7.68;66.13;99133.63;5032704;28;20112;-43
2022/11/22 03:16:33;;;;;;;4.00;3.20;;;;;;;7.59;66.65;99137.47;5032307;28;20155;-44
2022/11/22 03:18:59;;;;;;;3.95;2.95;;;;;;;7.69;65.57;99140.59;5032441;28;20022;-44
2022/11/22 03:21:24;;;;;;;4.05;3.10;;;;;;;7.76;66.48;99138.75;5032696;28;20144;-44
2022/11/22 03:23:49;;;;;;;4.22;3.42;;;;;;;7.86;65.19;99134.91;5032185;28;20092;-44
2022/11/22 03:26:15;;;;;;;4.20;3.15;;;;;;;7.57;65.72;99134.22;5032313;28;20117;-44
2022/11/22 03:28:40;;;;;;;4.30;3.40;;;;;;;7.61;65.68;99138.09;5032113;28;20025;-44
2022/11/22 03:31:06;;;;;;;5.70;3.40;;;;;;;7.50;65.69;99136.84;5031908;28;20033;-43
2022/11/22 03:33:33;;;;;;;4.82;3.00;;;;;;;7.40;66.56;99133.75;5032224;28;20059;-44
2022/11/22 03:35:59;;;;;;;4.75;3.28;;;;;;;7.33;67.10;99141.66;5031630;28;20100;-43
2022/11/22 03:38:24;;;;;;;4.22;3.50;;;;;;;7.33;66.90;99141.66;5032169;28;20126;-45
2022/11/22 03:40:49;;;;;;;4.85;3.72;;;;;;;7.33;67.51;99149.59;5032168;28;20018;-45
2022/11/22 03:43:15;;;;;;;4.38;3.55;;;;;;;7.12;67.67;99144.38;5031944;28;20043;-44
2022/11/22 03:45:46;;;;;;;4.50;3.38;;;;;;;7.09;67.65;99145.59;5031873;28;20087;-43
2022/11/22 03:48:13;;;;;;;4.63;3.63;;;;;;;6.97;68.69;99145.34;5031970;28;20044;-44
2022/11/22 03:50:39;;;;;;;5.80;3.67;;;;;;;7.29;67.36;99134.28;5042114;28;20024;-43
2022/11/22 03:53:04;;;;;;;5.50;4.18;;;;;;;7.33;66.96;99141.66;5032033;28;20017;-43
2022/11/22 03:55:29;;;;;;;5.38;3.83;;;;;;;7.40;66.70;99145.13;5031345;28;20033;-43
2022/11/22 03:57:55;;;;;;;4.78;3.80;;;;;;;7.35;66.56;99141.44;5033658;28;20030;-43
2022/11/22 04:00:20;;;;;;;7.30;5.03;;;;;;;6.99;67.11;99145.97;5031677;28;20033;-43
2022/11/22 04:02:46;;;;;;;5.15;3.70;;;;;;;6.91;68.54;99140.84;5031692;28;20083;-42
2022/11/22 04:05:11;;;;;;;9.88;5.57;;;;;;;7.03;68.17;99144.56;5033386;28;20033;-42
2022/11/22 04:07:37;;;;;;;7.13;5.13;;;;;;;6.95;68.59;99150.00;5031565;28;20029;-42
2022/11/22 04:10:03;;;;;;;9.02;6.07;;;;;;;6.93;68.58;99141.47;5031384;28;20053;-42
2022/11/22 04:12:29;;;;;;;13.63;7.70;;;;;;;6.86;68.62;99156.47;5031231;28;20025;-43
2022/11/22 04:15:07;;;;;;;5.28;3.90;;;;;;;6.73;69.17;99159.03;5031553;28;20029;-43
2022/11/22 04:17:40;;;;;;;4.75;3.60;;;;;;;6.86;69.21;99167.03;5031279;28;20029;-43
2022/11/22 04:23:07;;;;;;;4.50;3.80;;;;;;;7.09;68.42;99158.84;5031595;28;20052;-44
2022/11/22 04:25:34;;;;;;;4.95;3.78;;;;;;;7.08;68.53;99164.31;5031403;28;20037;-42
2022/11/22 04:28:00;;;;;;;5.25;3.67;;;;;;;7.24;67.84;99153.44;5031375;28;20028;-43
2022/11/22 04:33:10;;;;;;;5.97;3.72;;;;;;;7.23;68.64;99154.44;5031321;28;20362;-43
2022/11/22 04:35:36;;;;;;;36.63;19.83;;;;;;;7.35;67.81;99160.81;5030777;28;20106;-43
2022/11/22 04:38:02;;;;;;;9.77;4.03;;;;;;;7.41;67.24;99164.50;5030724;28;20021;-43
2022/11/22 04:40:28;;;;;;;8.02;3.70;;;;;;;7.20;67.18;99162.78;5030772;28;20119;-44
2022/11/22 04:45:37;;;;;;;5.03;3.83;;;;;;;7.52;66.25;99171.06;5030845;28;20052;-43
2022/11/22 04:48:03;;;;;;;5.30;3.80;;;;;;;7.59;66.03;99179.84;5030443;28;20025;-43
2022/11/22 04:53:14;;;;;;;8.40;3.92;;;;;;;7.51;66.67;99185.31;5030128;28;20390;-43
2022/11/22 04:55:41;;;;;;;6.60;4.05;;;;;;;6.98;67.77;99159.38;5029929;28;20029;-43
2022/11/22 04:58:06;;;;;;;5.53;3.85;;;;;;;7.15;67.91;99183.69;5029792;28;20029;-44
2022/11/22 05:00:33;;;;;;;6.28;3.80;;;;;;;7.02;68.67;99187.06;5029505;28;20036;-43
2022/11/22 05:02:59;;;;;;;5.63;3.55;;;;;;;7.11;68.21;99204.44;5029862;28;20017;-42
2022/11/22 05:05:26;;;;;;;5.00;3.50;;;;;;;7.04;68.57;99207.06;5030235;28;20043;-42
2022/11/22 05:07:51;;;;;;;5.32;4.05;;;;;;;7.00;68.87;99213.72;5030634;28;20031;-42
2022/11/22 05:10:17;;;;;;;6.25;4.35;;;;;;;7.00;69.21;99224.31;5030924;28;20025;-42
2022/11/22 05:12:42;;;;;;;8.70;4.63;;;;;;;6.93;68.66;99223.47;5030427;28;20448;-42
2022/11/22 05:15:10;;;;;;;7.57;4.97;;;;;;;6.77;69.90;99239.59;5030843;28;20037;-44
2022/11/22 05:17:36;;;;;;;12.88;7.40;;;;;;;6.90;69.55;99237.06;5030669;28;20064;-43
2022/11/22 05:20:03;;;;;;;7.05;5.00;;;;;;;7.02;69.07;99242.63;5030556;28;20473;-43
2022/11/22 05:25:12;;;;;;;5.97;4.40;;;;;;;6.91;69.73;99248.44;5030810;28;20115;-42
2022/11/22 05:27:38;;;;;;;5.85;4.30;;;;;;;6.95;69.15;99252.34;5030327;28;20045;-42
2022/11/22 05:30:05;;;;;;;6.85;4.32;;;;;;;7.33;68.17;99255.50;5030173;28;20025;-42
2022/11/22 05:32:31;;;;;;;7.80;5.10;;;;;;;7.46;70.56;99259.22;5030366;28;20201;-44
2022/11/22 05:34:57;;;;;;;6.28;4.50;;;;;;;7.86;67.44;99257.56;5030496;28;20099;-42
2022/11/22 05:37:23;;;;;;;6.30;4.22;;;;;;;8.06;65.50;99260.31;5030212;28;20033;-44
2022/11/22 05:39:49;;;;;;;5.75;4.25;;;;;;;8.08;65.19;99268.06;5030523;28;20083;-42
2022/11/22 05:42:14;;;;;;;6.15;4.47;;;;;;;8.15;65.12;99268.91;5030638;28;20026;-43
2022/11/22 05:44:39;;;;;;;8.15;4.32;;;;;;;8.91;62.89;99276.63;5030154;28;20029;-43
2022/11/22 05:47:05;;;;;;;8.65;4.35;;;;;;;9.36;60.54;99295.38;5028717;28;20102;-43
2022/11/22 05:49:30;;;;;;;10.85;7.13;;;;;;;9.67;59.83;99293.91;5029866;28;20464;-43
2022/11/22 05:51:56;;;;;;;6.30;4.20;;;;;;;9.76;58.82;99297.13;5029219;28;20076;-43
2022/11/22 05:54:21;;;;;;;4.97;3.88;;;;;;;10.22;57.32;99284.69;5029294;28;20038;-43
2022/11/22 05:56:47;;;;;;;5.63;4.00;;;;;;;10.82;58.82;99287.03;5027604;28;20033;-44
2022/11/22 05:59:13;;;;;;;20.90;13.48;;;;;;;11.33;56.99;99294.78;5030660;28;20029;-44
2022/11/22 06:01:38;;;;;;;15.27;9.50;;;;;;;12.33;60.36;99293.69;5033590;28;20030;-44
2022/11/22 06:04:04;;;;;;;7.18;4.70;;;;;;;12.54;52.68;99285.41;5033594;28;20039;-43
2022/11/22 06:06:29;;;;;;;10.27;4.45;;;;;;;13.02;50.84;99290.66;5033411;28;20025;-44
2022/11/22 06:08:55;;;;;;;8.30;4.70;;;;;;;13.47;50.09;99287.41;5031820;28;20083;-45
2022/11/22 06:11:25;;;;;;;7.70;4.30;;;;;;;13.91;48.10;99289.69;5032472;28;20076;-44
2022/11/22 06:13:56;;;;;;;6.50;4.55;;;;;;;14.18;46.30;99292.63;5032493;28;20200;-46
2022/11/22 06:16:23;;;;;;;6.03;4.40;;;;;;;13.95;46.68;99293.50;5033786;28;20092;-43
2022/11/22 06:18:49;;;;;;;6.07;3.90;;;;;;;13.62;46.73;99294.16;5033520;28;20033;-44
2022/11/22 06:21:22;;;;;;;6.88;3.80;;;;;;;14.15;45.86;99290.44;5033373;28;20091;-44
2022/11/22 06:23:47;;;;;;;8.45;3.78;;;;;;;14.24;44.86;99282.84;5032514;28;20041;-43
2022/11/22 06:26:16;;;;;;;5.82;3.80;;;;;;;14.78;44.41;99287.88;5031497;28;20497;-43
2022/11/22 06:28:42;;;;;;;7.47;4.27;;;;;;;15.22;43.04;99288.03;5031641;28;20104;-43
2022/11/22 06:31:17;;;;;;;6.05;4.10;;;;;;;15.37;42.71;99280.22;5030554;28;20100;-43
2022/11/22 06:33:43;;;;;;;6.88;3.72;;;;;;;15.56;42.09;99286.13;5031706;28;20128;-45
2022/11/22 06:36:19;;;;;;;5.35;3.60;;;;;;;16.05;41.14;99282.75;5032378;28;20104;-44
2022/11/22 06:38:45;;;;;;;7.72;3.55;;;;;;;15.77;41.94;99289.91;5032325;28;20025;-43
2022/11/22 06:41:13;;;;;;;9.73;3.65;;;;;;;16.15;40.73;99301.66;5032291;28;20083;-44
2022/11/22 06:43:40;;;;;;;9.43;4.03;;;;;;;16.40;39.92;99314.53;5032456;28;20021;-45
2022/11/22 06:46:07;;;;;;;10.02;4.38;;;;;;;16.45;40.76;99340.66;5032764;28;20087;-44
2022/11/22 06:48:34;;;;;;;7.28;4.25;;;;;;;15.87;41.15;99339.41;5032684;28;20028;-45
2022/11/22 06:51:02;;;;;;;11.68;4.70;;;;;;;16.34;40.69;99334.34;5032641;28;20028;-44
2022/11/22 06:53:28;;;;;;;5.82;3.97;;;;;;;16.52;40.51;99333.19;5032676;28;20029;-44
2022/11/22 06:56:08;;;;;;;6.28;3.75;;;;;;;17.28;38.93;99328.81;5032611;28;20503;-45
2022/11/22 06:58:35;;;;;;;10.40;3.83;;;;;;;17.64;38.04;99313.72;5032425;28;20108;-45
2022/11/22 07:01:15;;;;;;;7.03;4.32;;;;;;;18.04;37.11;99327.69;5032394;28;20036;-47
2022/11/22 07:03:41;;;;;;;;;;;;;;;18.63;35.56;99343.50;5032765;28;20013;-47
2022/11/22 07:06:08;;;;;;;7.75;4.00;;;;;;;18.85;35.75;99353.25;5031995;28;19999;-46
2022/11/22 07:08:35;;;;;;;7.47;4.82;;;;;;;19.27;35.51;99349.53;5032671;28;20049;-44
2022/11/22 07:11:08;;;;;;;7.57;4.05;;;;;;;18.89;36.29;99343.56;5031270;28;20027;-45
2022/11/22 07:13:33;;;;;;;8.23;4.05;;;;;;;19.22;35.05;99333.34;5032126;28;20029;-45
2022/11/22 07:16:01;;;;;;;5.93;3.90;;;;;;;19.59;34.69;99334.91;5032391;28;20090;-44
2022/11/22 07:18:27;;;;;;;8.05;4.13;;;;;;;19.63;34.55;99344.06;5031979;28;20028;-44
2022/11/22 07:20:58;;;;;;;6.97;4.80;;;;;;;19.52;33.67;99346.00;5031935;28;20100;-45
2022/11/22 07:23:23;;;;;;;9.43;5.00;;;;;;;19.21;34.46;99340.63;5031402;28;20128;-45
2022/11/22 07:25:49;;;;;;;5.60;4.72;;;;;;;19.37;34.11;99343.31;5031950;28;20032;-45
2022/11/22 07:28:15;;;;;;;6.97;4.45;;;;;;;19.80;33.67;99343.78;5031670;28;20031;-45
2022/11/22 07:30:41;;;;;;;8.50;5.05;;;;;;;19.65;33.40;99334.63;5031745;28;20028;-44
2022/11/22 07:33:08;;;;;;;8.00;4.60;;;;;;;19.97;33.08;99338.06;5031544;28;20156;-44
2022/11/22 07:35:34;;;;;;;5.68;3.70;;;;;;;20.44;32.33;99334.09;5031697;28;20037;-43
2022/11/22 07:38:00;;;;;;;4.82;3.20;;;;;;;20.65;31.38;99334.81;5032035;28;20029;-45
2022/11/22 07:40:25;;;;;;;5.03;3.30;;;;;;;20.61;32.32;99339.16;5031639;28;20021;-44
2022/11/22 07:42:51;;;;;;;6.72;3.30;;;;;;;20.14;32.77;99330.44;5031392;28;20417;-45
2022/11/22 07:45:16;;;;;;;7.50;4.35;;;;;;;20.43;32.11;99325.19;5031567;28;20032;-44
2022/11/22 07:47:42;;;;;;;6.72;3.45;;;;;;;20.85;31.65;99328.47;5031754;28;20409;-43
2022/11/22 07:50:08;;;;;;;4.93;3.63;;;;;;;20.85;31.58;99323.06;5031534;28;20028;-43
2022/11/22 07:52:33;;;;;;;5.07;3.25;;;;;;;20.92;31.19;99320.84;5031679;28;20021;-46
2022/11/22 07:54:58;;;;;;;4.07;2.97;;;;;;;21.18;31.09;99315.22;5031267;28;20531;-43
2022/11/22 07:57:24;;;;;;;4.00;2.88;;;;;;;21.57;29.90;99325.16;5031308;28;20025;-43
2022/11/22 07:59:49;;;;;;;6.90;3.40;;;;;;;21.19;30.63;99320.38;5031245;28;20473;-43
2022/11/22 08:02:14;;;;;;;5.40;3.20;;;;;;;21.45;30.66;99312.03;5031193;28;20027;-43
2022/11/22 08:04:40;;;;;;;4.38;2.75;;;;;;;21.57;30.22;99304.34;5031162;28;20029;-44
2022/11/22 08:07:05;;;;;;;5.03;3.33;;;;;;;21.97;29.35;99304.16;5031214;28;20413;-44
2022/11/22 08:09:31;;;;;;;3.60;3.10;;;;;;;22.04;29.53;99301.91;5031125;28;20029;-43
2022/11/22 08:11:56;;;;;;;5.07;3.00;;;;;;;21.71;30.03;99309.06;5030789;28;20051;-43
2022/11/22 08:14:22;;;;;;;6.95;2.95;;;;;;;21.92;29.86;99312.34;5030970;28;20021;-42
2022/11/22 08:16:48;;;;;;;3.78;2.90;;;;;;;21.96;29.62;99310.69;5030674;28;20493;-42
2022/11/22 08:19:16;;;;;;;4.72;2.90;;;;;;;22.38;29.46;99317.22;5030448;28;20089;-42
2022/11/22 08:21:46;;;;;;;5.03;3.00;;;;;;;22.53;29.33;99319.72;5030650;28;20033;-44
2022/11/22 08:24:11;;;;;;;3.92;2.85;;;;;;;22.52;28.55;99304.53;5030385;28;20051;-43
2022/11/22 08:26:37;;;;;;;4.50;2.90;;;;;;;22.52;28.47;99311.84;5030754;28;20112;-43
2022/11/22 08:29:04;;;;;;;4.22;3.00;;;;;;;22.28;29.03;99317.38;5030590;28;20025;-42
2022/11/22 08:31:30;;;;;;;6.78;3.35;;;;;;;22.10;28.79;99308.06;5030515;28;20048;-42
2022/11/22 08:33:55;;;;;;;6.20;3.38;;;;;;;21.82;28.98;99294.31;5030309;28;20029;-42
2022/11/22 08:36:21;;;;;;;6.80;3.80;;;;;;;21.25;29.40;99291.38;5030298;28;20049;-42
2022/11/22 08:38:46;;;;;;;9.95;7.63;;;;;;;21.78;29.29;99279.72;5030107;28;20115;-42
2022/11/22 08:41:12;;;;;;;4.70;3.67;;;;;;;21.95;29.01;99287.38;5030402;28;20033;-42
2022/11/22 08:43:37;;;;;;;3.97;2.72;;;;;;;21.37;28.57;99278.25;5030586;28;20456;-41
2022/11/22 08:46:03;;;;;;;4.25;2.60;;;;;;;20.81;29.54;99265.22;5030311;28;20039;-41
2022/11/22 08:48:31;;;;;;;4.03;3.20;;;;;;;20.89;29.70;99259.22;5030689;28;20408;-42
2022/11/22 08:50:59;;;;;;;4.53;2.70;;;;;;;20.68;30.71;99259.38;5030189;28;20018;-43
2022/11/22 08:53:26;;;;;;;3.53;2.88;;;;;;;21.19;29.30;99255.44;5029968;28;20033;-43
2022/11/22 08:55:53;;;;;;;5.70;3.17;;;;;;;20.78;30.35;99260.38;5030184;28;20472;-42
2022/11/22 08:58:19;;;;;;;7.47;3.70;;;;;;;20.91;29.99;99232.69;5030292;28;20464;-42
2022/11/22 09:00:44;;;;;;;7.13;4.82;;;;;;;20.41;30.50;99240.06;5030129;28;20029;-42
2022/11/22 09:03:09;;;;;;;6.65;4.57;;;;;;;20.16;30.60;99222.94;5030248;28;20096;-44
2022/11/22 09:05:35;;;;;;;8.18;4.93;;;;;;;20.10;30.67;99222.19;5030102;28;20033;-42
2022/11/22 09:08:01;;;;;;;10.10;5.15;;;;;;;19.48;32.16;99221.59;5030114;28;20022;-43
2022/11/22 09:10:26;;;;;;;10.55;5.15;;;;;;;20.03;31.83;99218.16;5030232;28;20025;-43
2022/11/22 09:12:52;;;;;;;14.15;5.07;;;;;;;20.06;31.52;99220.28;5030239;28;20021;-44
2022/11/22 09:15:17;;;;;;;7.72;4.68;;;;;;;19.32;32.63;99217.31;5030046;28;20497;-42
2022/11/22 09:17:43;;;;;;;7.03;4.50;;;;;;;20.04;32.10;99225.16;5029959;28;20107;-42
2022/11/22 09:20:09;;;;;;;10.02;4.38;;;;;;;19.97;32.44;99225.50;5030000;28;20175;-45
2022/11/22 09:22:34;;;;;;;5.63;3.25;;;;;;;19.73;31.74;99220.72;5029904;28;20512;-42
2022/11/22 09:25:00;;;;;;;6.22;3.13;;;;;;;18.64;33.25;99202.31;5030081;28;20026;-43
2022/11/22 09:27:25;;;;;;;7.55;4.30;;;;;;;17.97;35.00;99212.97;5029950;28;20026;-44
2022/11/22 09:29:51;;;;;;;6.63;2.90;;;;;;;18.35;34.63;99207.38;5029901;28;20025;-42
2022/11/22 09:32:17;;;;;;;5.00;3.10;;;;;;;18.51;34.53;99216.31;5029673;28;20026;-44
2022/11/22 09:34:42;;;;;;;4.20;2.67;;;;;;;17.80;35.04;99209.66;5031215;28;20025;-42
2022/11/22 09:37:08;;;;;;;3.63;2.88;;;;;;;17.64;35.27;99199.91;5033696;28;20021;-43
2022/11/22 09:39:33;;;;;;;5.82;2.90;;;;;;;17.51;35.86;99185.84;5033768;28;20408;-42
2022/11/22 09:42:25;;;;;;;4.28;3.08;;;;;;;17.15;36.77;99196.47;5033697;28;20044;-43
2022/11/22 09:45:15;;;;;;;4.38;3.03;;;;;;;16.85;36.87;99205.13;5032416;28;20108;-42
2022/11/22 09:47:40;;;;;;;3.67;3.10;;;;;;;16.39;38.47;99218.13;5033423;28;20020;-42
2022/11/22 09:50:44;;;;;;;5.35;2.85;;;;;;;16.68;36.74;99218.66;5033204;28;20025;-42
2022/11/22 09:53:19;;;;;;;3.65;2.60;;;;;;;17.36;35.71;99223.44;5011069;28;20038;-42
2022/11/22 09:55:51;;;;;;;4.38;2.60;;;;;;;17.77;34.67;99210.19;5029744;28;20060;-43
2022/11/22 09:58:29;;;;;;;3.67;2.70;;;;;;;18.42;34.38;99216.00;5033081;28;20123;-44
2022/11/22 10:01:02;;;;;;;4.55;3.03;;;;;;;18.58;34.77;99229.50;5032597;28;20105;-42
2022/11/22 10:03:33;;;;;;;4.78;3.08;;;;;;;18.95;33.99;99221.97;5032767;28;20512;-42
2022/11/22 10:06:02;;;;;;;5.00;3.30;;;;;;;17.96;35.52;99216.72;5033141;28;20644;-43
2022/11/22 10:08:27;;;;;;;5.15;3.30;;;;;;;17.31;36.90;99207.28;5031802;28;20029;-44
2022/11/22 10:10:56;;;;;;;7.47;3.95;;;;;;;17.73;36.62;99198.34;5033241;28;20032;-43
2022/11/22 10:13:32;;;;;;;4.95;3.58;;;;;;;17.04;38.04;99194.78;5032917;28;20028;-42
2022/11/22 10:16:16;;;;;;;5.75;3.80;;;;;;;17.58;36.70;99186.44;5033217;28;20095;-43
2022/11/22 10:18:57;;;;;;;5.50;3.83;;;;;;;17.31;37.60;99177.72;5032869;28;20026;-43
2022/11/22 10:21:24;;;;;;;7.13;3.28;;;;;;;17.78;36.59;99184.88;5032480;28;20027;-42
2022/11/22 10:23:50;;;;;;;6.43;3.40;;;;;;;17.19;36.97;99173.34;5031913;28;20079;-42
2022/11/22 10:26:22;;;;;;;5.20;3.20;;;;;;;17.38;36.79;99179.09;5032973;28;20052;-44
2022/11/22 10:29:08;;;;;;;6.03;3.45;;;;;;;17.79;36.28;99176.53;5032746;28;20132;-43
2022/11/22 10:31:56;;;;;;;5.50;3.55;;;;;;;17.44;36.62;99177.25;5033126;28;20040;-46
2022/11/22 10:34:21;;;;;;;10.57;5.65;;;;;;;17.73;36.66;99184.88;5032667;28;20056;-45
2022/11/22 10:37:09;;;;;;;5.63;3.95;;;;;;;17.15;37.83;99193.78;5032773;28;20033;-44
2022/11/22 10:39:57;;;;;;;6.40;3.65;;;;;;;17.97;37.02;99180.69;5032453;28;20037;-44
2022/11/22 10:42:48;;;;;;;10.13;7.38;;;;;;;17.72;37.85;99181.38;5032417;28;20021;-42
2022/11/22 10:45:57;;;;;;;6.38;4.43;;;;;;;18.07;36.88;99176.41;5032643;28;20033;-47
2022/11/22 10:48:31;;;;;;;5.60;3.75;;;;;;;18.00;36.53;99175.84;5016670;28;20423;-42
2022/11/22 10:51:22;;;;;;;5.20;3.80;;;;;;;17.22;36.92;99201.59;5032745;28;20031;-43
2022/11/22 10:53:53;;;;;;;4.22;3.42;;;;;;;17.40;36.96;99176.13;5032187;28;20144;-44
2022/11/22 10:56:41;;;;;;;5.18;3.45;;;;;;;17.75;36.36;99180.84;5032499;28;20079;-42
2022/11/22 10:59:40;;;;;;;3.97;3.40;;;;;;;18.10;35.94;99170.47;5032415;28;20025;-45
2022/11/22 11:02:48;;;;;;;10.13;3.65;;;;;;;17.76;36.18;99158.25;5032412;28;20022;-43
2022/11/22 11:05:18;;;;;;;4.30;3.30;;;;;;;17.31;37.44;99165.06;5032189;28;20048;-43
2022/11/22 11:07:46;;;;;;;;;;;;;;;17.22;37.75;99155.06;5032348;28;20478;-45
2022/11/22 11:10:18;;;;;;;10.75;4.65;;;;;;;17.45;37.58;99135.81;5032351;28;19909;-44
2022/11/22 11:12:49;;;;;;;5.32;3.90;;;;;;;16.79;38.26;99137.06;5032270;28;20064;-42
2022/11/22 11:15:35;;;;;;;4.82;3.70;;;;;;;16.67;38.99;99127.59;5032395;28;20396;-44
2022/11/22 11:18:04;;;;;;;5.50;3.88;;;;;;;16.14;40.72;99120.19;5032261;28;20221;-42
2022/11/22 11:20:36;;;;;;;5.43;3.88;;;;;;;16.55;39.35;99119.72;5031901;28;20033;-44
2022/11/22 11:23:01;;;;;;;5.43;3.90;;;;;;;15.89;40.88;99122.63;5031835;28;20104;-43
2022/11/22 11:25:32;;;;;;;4.82;3.92;;;;;;;15.70;42.21;99120.25;5031904;28;20033;-43
2022/11/22 11:28:05;;;;;;;6.07;3.97;;;;;;;15.81;41.56;99111.28;5031945;28;20108;-45
2022/11/22 11:30:43;;;;;;;8.15;4.03;;;;;;;15.22;42.97;99105.78;5030052;28;20029;-43
2022/11/22 11:33:24;;;;;;;6.38;3.72;;;;;;;14.96;43.50;99094.72;5031629;28;20029;-44
2022/11/22 11:35:53;;;;;;;7.68;3.78;;;;;;;15.00;43.58;99089.69;5029810;28;20561;-44
2022/11/22 11:38:27;;;;;;;6.53;3.55;;;;;;;14.75;43.79;99092.84;5031911;28;20174;-46
2022/11/22 11:40:52;;;;;;;8.35;3.70;;;;;;;15.13;43.88;99094.66;5031985;28;20045;-43
2022/11/22 11:43:20;;;;;;;4.43;3.25;;;;;;;15.75;42.09;99101.56;5031799;28;20470;-45
2022/11/22 11:45:45;;;;;;;4.22;3.22;;;;;;;15.07;42.88;99093.00;5031664;28;20456;-42
2022/11/22 11:48:27;;;;;;;3.95;3.05;;;;;;;14.86;43.63;99092.72;5031633;28;20029;-45
2022/11/22 11:51:18;;;;;;;3.40;2.92;;;;;;;15.03;43.19;99092.69;5031237;28;20026;-46
2022/11/22 11:53:57;;;;;;;4.88;2.80;;;;;;;14.83;43.04;99087.03;5031363;28;20103;-44
2022/11/22 11:56:37;;;;;;;5.97;3.22;;;;;;;14.45;43.78;99086.75;5030665;28;20037;-45